Terminal Aerodrome Forecast
Issued by NWS

Home | Current Version | Previous Version | Text Only | Print | Product List | Glossary Off
Versions: 1 2 3 4 5 6 7 8 9 10 11 12 13 14 15 16 17 18 19 20 21 22 23 24 25 26 27 28 29 30 31 32 33 34 35 36 37 38 39 40 41 42 43 44 45 46

000
FTUS43 KLOT 061359 AAA
TAFMDW
TAF AMD
KMDW 061359Z 0614/0712 11004KT 3/4SM BR OVC002
      TEMPO 0614/0615 1/4SM FG
     FM061530 12005KT 4SM BR OVC007
     FM061700 12005KT P6SM SCT020 BKN050
     FM062000 10008KT P6SM BKN050
     FM070300 13005KT 6SM HZ FEW004 SCT050=

USA.gov is the U.S. government's official web portal to all federal, state and local government web resources and services.